createdAt,value
2017-12-20T00:01:26.569Z,93.78
2017-12-20T00:02:53.931Z,93.71
2017-12-20T00:04:17.197Z,93.63
2017-12-20T00:05:48.424Z,93.51
2017-12-20T00:07:11.549Z,93.30
2017-12-20T00:08:38.840Z,93.11
2017-12-20T00:10:05.834Z,92.83
2017-12-20T00:11:37.003Z,92.76
2017-12-20T00:13:04.276Z,92.76
2017-12-20T00:14:31.637Z,92.66
2017-12-20T00:15:54.802Z,92.72
2017-12-20T00:17:21.892Z,92.82
2017-12-20T00:18:49.200Z,92.80
2017-12-20T00:20:16.303Z,92.71
2017-12-20T00:21:47.536Z,92.67
2017-12-20T00:23:10.711Z,92.92
2017-12-20T00:24:37.849Z,92.89
2017-12-20T00:26:04.705Z,92.83
2017-12-20T00:27:35.779Z,92.71
2017-12-20T00:28:59.045Z,92.78
2017-12-20T00:30:26.296Z,92.72
2017-12-20T00:31:53.551Z,92.67
2017-12-20T00:33:20.741Z,92.61
2017-12-20T00:34:47.856Z,92.54
2017-12-20T00:36:19.127Z,92.62
2017-12-20T00:37:42.397Z,92.55
2017-12-20T00:39:09.749Z,92.60
2017-12-20T00:40:40.901Z,92.63
2017-12-20T00:42:08.012Z,92.58
2017-12-20T00:43:31.326Z,92.59
2017-12-20T00:45:02.603Z,92.53
2017-12-20T00:46:25.726Z,92.56
2017-12-20T00:47:56.858Z,92.47
2017-12-20T00:49:20.123Z,92.46
2017-12-20T00:50:51.475Z,92.41
2017-12-20T00:52:14.778Z,92.36
2017-12-20T00:53:41.864Z,92.33
2017-12-20T00:55:13.084Z,92.23
2017-12-20T00:56:36.215Z,92.06
2017-12-20T00:58:03.391Z,92.00
2017-12-20T00:59:34.627Z,91.87
2017-12-20T01:00:57.700Z,92.05
2017-12-20T01:02:28.817Z,92.37
2017-12-20T01:03:56.134Z,92.34
2017-12-20T01:05:19.331Z,92.60
2017-12-20T01:06:50.444Z,92.50
2017-12-20T01:08:17.770Z,92.49
2017-12-20T01:09:40.866Z,92.50
2017-12-20T01:11:08.041Z,92.43
2017-12-20T01:12:35.167Z,92.26
2017-12-20T01:14:02.425Z,92.38
2017-12-20T01:15:33.617Z,92.29
2017-12-20T01:17:00.926Z,92.26
2017-12-20T01:18:28.261Z,92.20
2017-12-20T01:19:51.500Z,92.22
2017-12-20T01:21:22.746Z,92.25
2017-12-20T01:22:50.143Z,92.13
2017-12-20T01:24:16.962Z,92.13
2017-12-20T01:25:44.173Z,92.17
2017-12-20T01:27:07.376Z,92.16
2017-12-20T01:28:38.446Z,92.04
2017-12-20T01:30:01.879Z,91.95
2017-12-20T01:31:29.077Z,91.90
2017-12-20T01:32:56.368Z,91.89
2017-12-20T01:34:27.547Z,91.80
2017-12-20T01:35:54.905Z,91.74
2017-12-20T01:37:22.165Z,91.71
2017-12-20T01:38:45.573Z,91.69
2017-12-20T01:40:16.850Z,91.61
2017-12-20T01:41:44.020Z,91.82
2017-12-20T01:43:07.392Z,91.95
2017-12-20T01:44:34.479Z,91.99
2017-12-20T01:46:06.714Z,92.02
2017-12-20T01:47:29.063Z,91.97
2017-12-20T01:48:56.456Z,92.08
2017-12-20T01:50:23.631Z,92.19
2017-12-20T01:51:54.720Z,92.26
2017-12-20T01:53:22.054Z,92.25
2017-12-20T01:54:49.493Z,92.33
2017-12-20T01:56:12.849Z,92.20
2017-12-20T01:57:40.022Z,92.27
2017-12-20T01:59:11.024Z,92.37
2017-12-20T02:00:38.087Z,92.23
2017-12-20T02:02:01.519Z,92.20
2017-12-20T02:03:32.887Z,92.21
2017-12-20T02:04:59.841Z,92.19
2017-12-20T02:06:23.098Z,92.15
2017-12-20T02:07:54.418Z,92.28
2017-12-20T02:09:21.625Z,92.30
2017-12-20T02:10:44.744Z,92.21
2017-12-20T02:12:12.017Z,92.11
2017-12-20T02:13:39.341Z,92.15
2017-12-20T02:15:06.550Z,92.10
2017-12-20T02:16:33.964Z,92.06
2017-12-20T02:18:05.008Z,92.07
2017-12-20T02:19:28.252Z,92.09
2017-12-20T02:20:59.602Z,92.21
2017-12-20T02:22:22.749Z,92.21
2017-12-20T02:23:50.027Z,92.09
2017-12-20T02:25:21.290Z,92.25
2017-12-20T02:26:44.524Z,92.27
2017-12-20T02:28:15.502Z,92.16
2017-12-20T02:29:42.904Z,92.17
2017-12-20T02:31:06.002Z,92.11
2017-12-20T02:34:00.487Z,92.15
2017-12-20T02:35:31.685Z,92.17
2017-12-20T02:36:59.010Z,92.02
2017-12-20T02:38:26.305Z,91.93
2017-12-20T02:39:49.593Z,91.95
2017-12-20T02:41:16.855Z,91.98
2017-12-20T02:42:44.070Z,92.01
2017-12-20T02:44:11.233Z,91.92
2017-12-20T02:45:42.350Z,91.80
2017-12-20T02:47:09.495Z,91.78
2017-12-20T02:48:32.906Z,91.81
2017-12-20T02:50:04.098Z,91.88
2017-12-20T02:51:27.363Z,91.76
2017-12-20T02:52:58.403Z,91.67
2017-12-20T02:54:21.671Z,91.71
2017-12-20T02:55:48.682Z,91.73
2017-12-20T02:57:19.891Z,91.69
2017-12-20T02:58:47.086Z,91.71
2017-12-20T03:00:14.391Z,91.68
2017-12-20T03:01:37.771Z,91.54
2017-12-20T03:03:04.725Z,91.60
2017-12-20T03:04:32.141Z,91.61
2017-12-20T03:06:03.466Z,91.64
2017-12-20T03:07:26.584Z,91.63
2017-12-20T03:08:57.947Z,91.64
2017-12-20T03:10:21.330Z,91.73
2017-12-20T03:11:48.431Z,91.69
2017-12-20T03:13:19.697Z,91.66
2017-12-20T03:14:42.860Z,91.74
2017-12-20T03:16:14.244Z,91.79
2017-12-20T03:17:41.200Z,91.79
2017-12-20T03:19:04.559Z,91.73
2017-12-20T03:20:31.657Z,91.89
2017-12-20T03:21:58.895Z,91.88
2017-12-20T03:23:26.121Z,91.98
2017-12-20T03:24:53.569Z,92.05
2017-12-20T03:26:20.662Z,92.06
2017-12-20T03:27:51.894Z,91.93
2017-12-20T03:29:15.098Z,91.82
2017-12-20T03:30:46.413Z,91.73
2017-12-20T03:32:09.684Z,91.82
2017-12-20T03:33:36.898Z,91.85
2017-12-20T03:35:08.054Z,91.84
2017-12-20T03:36:31.067Z,91.78
2017-12-20T03:38:02.231Z,91.69
2017-12-20T03:39:25.568Z,91.78
2017-12-20T03:40:56.874Z,91.83
2017-12-20T03:42:19.938Z,91.92
2017-12-20T03:43:51.165Z,91.76
2017-12-20T03:45:14.213Z,91.74
2017-12-20T03:46:41.573Z,91.77
2017-12-20T03:48:12.666Z,91.72
2017-12-20T03:49:35.793Z,91.86
2017-12-20T03:51:03.198Z,91.86
2017-12-20T03:52:34.424Z,91.89
2017-12-20T03:54:01.338Z,91.91
2017-12-20T03:55:28.792Z,91.87
2017-12-20T03:56:55.941Z,91.81
2017-12-20T03:58:18.969Z,91.84
2017-12-20T03:59:46.173Z,91.90
2017-12-20T04:01:13.415Z,91.85
2017-12-20T04:02:44.463Z,91.83
2017-12-20T04:04:11.720Z,91.77
2017-12-20T04:05:34.865Z,91.69
2017-12-20T04:07:02.225Z,91.72
2017-12-20T04:08:33.371Z,91.98
2017-12-20T04:09:56.653Z,92.08
2017-12-20T04:11:27.818Z,92.06
2017-12-20T04:12:50.875Z,91.94
2017-12-20T04:14:18.036Z,92.03
2017-12-20T04:15:49.095Z,91.98
2017-12-20T04:17:12.182Z,91.90
2017-12-20T04:18:39.516Z,91.94
2017-12-20T04:20:10.730Z,92.02
2017-12-20T04:21:37.688Z,91.93
2017-12-20T04:23:01.222Z,91.95
2017-12-20T04:24:32.276Z,92.06
2017-12-20T04:25:55.755Z,92.00
2017-12-20T04:27:26.922Z,92.04
2017-12-20T04:28:50.077Z,91.97
2017-12-20T04:30:17.286Z,92.13
2017-12-20T04:31:48.547Z,92.59
2017-12-20T04:33:15.759Z,92.51
2017-12-20T04:34:39.084Z,92.56
2017-12-20T04:36:10.153Z,92.48
2017-12-20T04:37:37.510Z,92.35
2017-12-20T04:39:04.702Z,92.23
2017-12-20T04:40:32.171Z,92.04
2017-12-20T04:41:59.279Z,91.90
2017-12-20T04:43:26.726Z,91.83
2017-12-20T04:44:50.087Z,91.78
2017-12-20T04:46:17.332Z,91.76
2017-12-20T04:47:44.539Z,91.75
2017-12-20T04:49:15.803Z,91.84
2017-12-20T04:50:39.157Z,91.78
2017-12-20T04:52:10.396Z,91.72
2017-12-20T04:53:37.631Z,91.78
2017-12-20T04:55:04.880Z,91.80
2017-12-20T04:56:32.239Z,91.67
2017-12-20T04:57:55.374Z,91.64
2017-12-20T04:59:26.544Z,91.48
2017-12-20T05:00:53.844Z,91.41
2017-12-20T05:02:20.988Z,91.35
2017-12-20T05:03:48.277Z,91.28
2017-12-20T05:05:11.657Z,91.32
2017-12-20T05:06:42.836Z,91.20
2017-12-20T05:08:05.939Z,91.20
2017-12-20T05:09:37.237Z,91.15
2017-12-20T05:11:04.459Z,91.19
2017-12-20T05:12:27.943Z,91.15
2017-12-20T05:13:58.930Z,91.31
2017-12-20T05:15:22.111Z,91.27
2017-12-20T05:16:49.459Z,91.26
2017-12-20T05:18:16.758Z,91.30
2017-12-20T05:19:43.848Z,91.16
2017-12-20T05:21:11.252Z,91.03
2017-12-20T05:22:38.347Z,91.00
2017-12-20T05:24:09.643Z,90.95
2017-12-20T05:25:37.100Z,91.01
2017-12-20T05:27:00.440Z,91.20
2017-12-20T05:28:27.743Z,91.19
2017-12-20T05:29:54.935Z,91.23
2017-12-20T05:31:26.179Z,91.09
2017-12-20T05:32:49.417Z,91.10
2017-12-20T05:34:20.676Z,91.19
2017-12-20T05:35:43.933Z,91.17
2017-12-20T05:37:15.151Z,91.24
2017-12-20T05:38:37.936Z,91.21
2017-12-20T05:40:08.963Z,91.24
2017-12-20T05:41:32.236Z,91.23
2017-12-20T05:43:03.501Z,91.22
2017-12-20T05:44:30.678Z,91.27
2017-12-20T05:45:53.996Z,91.26
2017-12-20T05:47:21.390Z,91.29
2017-12-20T05:48:48.662Z,91.36
2017-12-20T05:50:19.856Z,91.45
2017-12-20T05:51:42.851Z,91.44
2017-12-20T05:53:14.035Z,91.53
2017-12-20T05:54:37.441Z,91.52
2017-12-20T05:56:08.262Z,91.28
2017-12-20T05:57:31.406Z,91.50
2017-12-20T05:58:58.715Z,91.59
2017-12-20T06:00:25.968Z,91.75
2017-12-20T06:01:57.185Z,91.66
2017-12-20T06:03:24.415Z,91.60
2017-12-20T06:04:47.726Z,91.43
2017-12-20T06:06:18.690Z,91.41
2017-12-20T06:07:42.099Z,91.46
2017-12-20T06:09:09.273Z,91.41
2017-12-20T06:10:36.481Z,91.49
2017-12-20T06:12:03.596Z,91.51
2017-12-20T06:13:30.613Z,91.53
2017-12-20T06:14:57.773Z,91.59
2017-12-20T06:16:28.857Z,91.49
2017-12-20T06:17:52.161Z,91.49
2017-12-20T06:19:23.632Z,91.45
2017-12-20T06:20:50.619Z,91.44
2017-12-20T06:22:17.987Z,91.37
2017-12-20T06:23:41.193Z,91.39
2017-12-20T06:25:12.160Z,91.33
2017-12-20T06:26:35.181Z,91.23
2017-12-20T06:28:02.332Z,91.28
2017-12-20T06:29:29.497Z,91.21
2017-12-20T06:31:00.697Z,91.11
2017-12-20T06:32:27.922Z,90.97
2017-12-20T06:33:51.287Z,91.16
2017-12-20T06:35:22.694Z,91.17
2017-12-20T06:36:45.828Z,91.16
2017-12-20T06:38:13.000Z,91.05
2017-12-20T06:39:44.201Z,90.99
2017-12-20T06:41:07.217Z,90.87
2017-12-20T06:42:38.392Z,90.83
2017-12-20T06:44:05.444Z,90.78
2017-12-20T06:45:32.686Z,90.72
2017-12-20T06:46:59.919Z,90.60
2017-12-20T06:48:27.249Z,90.43
2017-12-20T06:49:50.667Z,90.48
2017-12-20T06:51:18.020Z,90.50
2017-12-20T06:52:45.281Z,90.63
2017-12-20T06:54:16.647Z,90.74
2017-12-20T06:55:39.674Z,90.94
2017-12-20T06:57:10.982Z,90.94
2017-12-20T06:58:34.181Z,90.95
2017-12-20T07:00:05.376Z,90.90
2017-12-20T07:01:32.551Z,90.91
2017-12-20T07:02:55.888Z,90.89
2017-12-20T07:04:23.190Z,90.87
2017-12-20T07:05:50.366Z,90.85
2017-12-20T07:07:17.361Z,90.86
2017-12-20T07:08:48.606Z,90.99
2017-12-20T07:10:11.686Z,90.89
2017-12-20T07:11:38.741Z,90.95
2017-12-20T07:13:05.809Z,91.08
2017-12-20T07:14:33.162Z,91.00
2017-12-20T07:16:00.476Z,91.02
2017-12-20T07:17:27.840Z,90.98
2017-12-20T07:18:55.053Z,90.92
2017-12-20T07:20:26.382Z,90.94
2017-12-20T07:21:53.479Z,90.95
2017-12-20T07:23:16.970Z,90.92
2017-12-20T07:24:48.052Z,91.01
2017-12-20T07:26:15.286Z,90.99
2017-12-20T07:27:38.573Z,90.93
2017-12-20T07:29:05.845Z,91.03
2017-12-20T07:30:32.996Z,91.00
2017-12-20T07:32:04.104Z,90.96
2017-12-20T07:33:31.226Z,90.93
2017-12-20T07:34:54.364Z,91.02
2017-12-20T07:36:21.660Z,91.60
2017-12-20T07:37:48.927Z,91.73
2017-12-20T07:39:16.067Z,91.68
2017-12-20T07:40:43.261Z,91.70
2017-12-20T07:42:10.433Z,91.80
2017-12-20T07:43:41.776Z,91.71
2017-12-20T07:45:04.931Z,91.76
2017-12-20T07:46:32.146Z,91.71
2017-12-20T07:48:03.487Z,91.52
2017-12-20T07:49:26.837Z,91.67
2017-12-20T07:50:57.996Z,91.57
2017-12-20T07:52:21.356Z,91.54
2017-12-20T07:53:48.546Z,91.53
2017-12-20T07:55:19.788Z,91.56
2017-12-20T07:56:47.113Z,91.50
2017-12-20T07:58:10.138Z,91.51
2017-12-20T07:59:37.483Z,91.46
2017-12-20T08:01:08.553Z,91.51
2017-12-20T08:02:31.683Z,91.47
2017-12-20T08:03:58.814Z,91.49
2017-12-20T08:05:25.920Z,91.46
2017-12-20T08:06:57.040Z,91.37
2017-12-20T08:08:24.344Z,91.30
2017-12-20T08:09:47.581Z,91.28
2017-12-20T08:11:14.764Z,91.26
2017-12-20T08:12:41.891Z,91.17
2017-12-20T08:14:13.107Z,91.25
2017-12-20T08:15:36.424Z,91.11
2017-12-20T08:17:07.447Z,91.15
2017-12-20T08:18:30.969Z,91.20
2017-12-20T08:20:02.050Z,91.18
2017-12-20T08:21:25.440Z,91.25
2017-12-20T08:22:56.551Z,91.14
2017-12-20T08:24:19.965Z,91.09
2017-12-20T08:25:51.090Z,91.13
2017-12-20T08:27:18.196Z,91.11
2017-12-20T08:28:45.436Z,91.07
2017-12-20T08:30:12.701Z,91.22
2017-12-20T08:31:39.792Z,91.27
2017-12-20T08:33:03.216Z,91.31
2017-12-20T08:34:30.588Z,91.48
2017-12-20T08:35:57.937Z,91.33
2017-12-20T08:37:25.251Z,91.10
2017-12-20T08:38:52.616Z,91.15
2017-12-20T08:40:19.994Z,91.02
2017-12-20T08:41:51.173Z,90.93
2017-12-20T08:43:14.386Z,91.07
2017-12-20T08:44:45.614Z,91.02
2017-12-20T08:46:12.895Z,91.09
2017-12-20T08:47:36.180Z,91.06
2017-12-20T08:49:07.350Z,91.14
2017-12-20T08:50:34.642Z,91.10
2017-12-20T08:51:57.828Z,91.25
2017-12-20T08:53:25.162Z,91.30
2017-12-20T08:54:52.573Z,91.24
2017-12-20T08:56:19.976Z,91.23
2017-12-20T08:57:51.136Z,91.29
2017-12-20T08:59:14.202Z,91.37
2017-12-20T09:00:45.531Z,91.38
2017-12-20T09:02:08.689Z,91.25
2017-12-20T09:03:35.872Z,91.54
2017-12-20T09:05:03.300Z,91.57
2017-12-20T09:06:30.449Z,91.52
2017-12-20T09:08:01.804Z,91.52
2017-12-20T09:09:29.090Z,91.61
2017-12-20T09:10:52.415Z,91.68
2017-12-20T09:12:19.639Z,91.71
2017-12-20T09:13:46.929Z,91.67
2017-12-20T09:15:14.245Z,91.63
2017-12-20T09:16:41.447Z,91.68
2017-12-20T09:18:12.624Z,91.63
2017-12-20T09:19:35.852Z,91.68
2017-12-20T09:21:03.353Z,91.61
2017-12-20T09:22:30.285Z,91.63
2017-12-20T09:24:01.453Z,91.66
2017-12-20T09:25:28.655Z,92.01
2017-12-20T09:26:55.837Z,91.96
2017-12-20T09:28:22.940Z,92.44
2017-12-20T09:29:50.315Z,92.39
2017-12-20T09:31:17.299Z,92.65
2017-12-20T09:32:44.552Z,92.61
2017-12-20T09:34:07.928Z,92.62
2017-12-20T09:35:34.961Z,92.65
2017-12-20T09:37:02.265Z,92.65
2017-12-20T09:38:29.528Z,92.73
2017-12-20T09:39:56.778Z,92.75
2017-12-20T09:41:27.862Z,92.79
2017-12-20T09:42:55.121Z,92.78
2017-12-20T09:44:22.337Z,92.84
2017-12-20T09:45:45.700Z,93.02
2017-12-20T09:47:12.846Z,93.04
2017-12-20T09:48:40.029Z,93.13
2017-12-20T09:50:07.394Z,93.16
2017-12-20T09:51:34.361Z,93.19
2017-12-20T09:53:01.722Z,93.31
2017-12-20T09:54:29.078Z,93.39
2017-12-20T09:56:00.611Z,93.53
2017-12-20T09:57:23.810Z,93.40
2017-12-20T09:58:50.990Z,93.52
2017-12-20T10:00:18.179Z,93.46
2017-12-20T10:01:45.370Z,93.41
2017-12-20T10:03:12.715Z,93.41
2017-12-20T10:04:39.923Z,93.39
2017-12-20T10:06:10.961Z,93.32
2017-12-20T10:07:34.255Z,93.33
2017-12-20T10:09:01.389Z,93.35
2017-12-20T10:10:28.589Z,93.38
2017-12-20T10:11:56.047Z,93.44
2017-12-20T10:13:27.241Z,93.40
2017-12-20T10:14:50.640Z,93.48
2017-12-20T10:16:17.916Z,93.44
2017-12-20T10:17:49.186Z,93.38
2017-12-20T10:19:12.375Z,93.35
2017-12-20T10:20:39.651Z,93.37
2017-12-20T10:22:06.891Z,93.36
2017-12-20T10:23:34.442Z,93.28
2017-12-20T10:25:05.794Z,93.20
2017-12-20T10:26:28.891Z,93.22
2017-12-20T10:27:56.249Z,93.22
2017-12-20T10:29:23.438Z,93.25
2017-12-20T10:30:50.801Z,93.25
2017-12-20T10:32:17.823Z,93.34
2017-12-20T10:33:49.213Z,93.31
2017-12-20T10:35:16.301Z,93.33
2017-12-20T10:36:43.360Z,93.36
2017-12-20T10:38:06.796Z,93.39
2017-12-20T10:39:38.068Z,93.42
2017-12-20T10:41:01.162Z,93.54
2017-12-20T10:42:28.640Z,93.62
2017-12-20T10:43:55.758Z,93.65
2017-12-20T10:45:26.949Z,93.65
2017-12-20T10:46:54.007Z,93.75
2017-12-20T10:48:17.128Z,93.79
2017-12-20T10:49:44.360Z,93.71
2017-12-20T10:51:15.657Z,93.62
2017-12-20T10:52:42.892Z,93.69
2017-12-20T10:54:09.950Z,93.62
2017-12-20T10:55:33.312Z,93.59
2017-12-20T10:57:04.721Z,93.58
2017-12-20T10:58:27.960Z,93.58
2017-12-20T10:59:59.235Z,93.69
2017-12-20T11:01:22.686Z,93.56
2017-12-20T11:02:50.029Z,93.47
2017-12-20T11:04:21.208Z,93.41
2017-12-20T11:05:48.498Z,93.40
2017-12-20T11:07:15.765Z,93.44
2017-12-20T11:08:38.998Z,93.71
2017-12-20T11:10:06.191Z,93.82
2017-12-20T11:11:33.632Z,93.85
2017-12-20T11:13:00.688Z,93.66
2017-12-20T11:14:27.912Z,94.08
2017-12-20T11:15:55.238Z,94.53
2017-12-20T11:17:22.514Z,94.42
2017-12-20T11:18:49.663Z,94.34
2017-12-20T11:20:17.011Z,94.24
2017-12-20T11:21:44.257Z,94.16
2017-12-20T11:23:15.548Z,94.13
2017-12-20T11:24:42.851Z,94.08
2017-12-20T11:26:05.894Z,94.06
2017-12-20T11:27:33.021Z,94.09
2017-12-20T11:29:00.440Z,94.11
2017-12-20T11:30:27.683Z,94.13
2017-12-20T11:31:54.960Z,94.17
2017-12-20T11:33:26.274Z,94.19
2017-12-20T11:34:49.474Z,94.31
2017-12-20T11:36:16.831Z,94.31
2017-12-20T11:37:44.084Z,94.34
2017-12-20T11:39:11.393Z,94.46
2017-12-20T11:40:38.671Z,94.56
2017-12-20T11:42:09.957Z,94.56
2017-12-20T11:43:33.324Z,94.57
2017-12-20T11:45:00.630Z,94.61
2017-12-20T11:46:28.017Z,94.71
2017-12-20T11:47:55.355Z,94.79
2017-12-20T11:49:26.717Z,94.81
2017-12-20T11:50:49.982Z,94.89
2017-12-20T11:52:17.234Z,94.86
2017-12-20T11:53:44.522Z,94.86
2017-12-20T11:55:11.658Z,94.89
2017-12-20T11:56:42.800Z,95.04
2017-12-20T11:58:10.074Z,95.04
2017-12-20T11:59:33.187Z,95.13
2017-12-20T12:01:00.419Z,95.11
2017-12-20T12:02:31.658Z,95.08
2017-12-20T12:03:58.900Z,95.12
2017-12-20T12:05:22.323Z,95.09
2017-12-20T12:06:49.607Z,95.10
2017-12-20T12:08:16.862Z,95.17
2017-12-20T12:09:48.171Z,95.22
2017-12-20T12:11:11.217Z,95.30
2017-12-20T12:12:42.305Z,95.33
2017-12-20T12:14:05.661Z,95.39
2017-12-20T12:15:32.927Z,95.41
2017-12-20T12:17:00.189Z,95.44
2017-12-20T12:18:31.462Z,95.44
2017-12-20T12:19:54.851Z,95.43
2017-12-20T12:21:21.992Z,95.45
2017-12-20T12:22:53.290Z,95.51
2017-12-20T12:24:20.731Z,95.53
2017-12-20T12:25:47.861Z,95.54
2017-12-20T12:27:11.197Z,95.62
2017-12-20T12:28:38.424Z,95.61
2017-12-20T12:30:05.596Z,95.57
2017-12-20T12:31:36.927Z,95.68
2017-12-20T12:33:00.297Z,95.65
2017-12-20T12:34:27.679Z,95.74
2017-12-20T12:35:58.911Z,95.70
2017-12-20T12:37:22.193Z,95.77
2017-12-20T12:38:53.551Z,95.77
2017-12-20T12:40:16.832Z,95.67
2017-12-20T12:41:43.920Z,95.68
2017-12-20T12:43:15.128Z,95.78
2017-12-20T12:44:38.505Z,95.85
2017-12-20T12:46:09.604Z,95.81
2017-12-20T12:47:32.743Z,95.92
2017-12-20T12:49:00.265Z,95.92
2017-12-20T12:50:27.526Z,95.92
2017-12-20T12:51:54.898Z,95.97
2017-12-20T12:53:26.072Z,96.07
2017-12-20T12:54:49.455Z,96.12
2017-12-20T12:56:16.650Z,96.17
2017-12-20T12:57:43.865Z,96.14
2017-12-20T12:59:15.165Z,96.14
2017-12-20T13:00:38.349Z,96.23
2017-12-20T13:02:05.616Z,96.29
2017-12-20T13:03:32.846Z,96.34
2017-12-20T13:05:04.076Z,96.36
2017-12-20T13:06:27.250Z,96.43
2017-12-20T13:07:54.722Z,96.53
2017-12-20T13:09:21.961Z,96.71
2017-12-20T13:10:53.308Z,96.81
2017-12-20T13:12:16.645Z,96.79
2017-12-20T13:13:43.810Z,96.82
2017-12-20T13:15:15.079Z,96.80
2017-12-20T13:16:38.408Z,96.81
2017-12-20T13:18:05.695Z,96.77
2017-12-20T13:19:33.036Z,96.82
2017-12-20T13:21:04.401Z,96.85
2017-12-20T13:22:27.665Z,96.89
2017-12-20T13:23:58.957Z,96.88
2017-12-20T13:25:22.397Z,96.87
2017-12-20T13:26:49.500Z,96.89
2017-12-20T13:28:16.891Z,96.94
2017-12-20T13:29:44.152Z,96.84
2017-12-20T13:31:11.166Z,96.82
2017-12-20T13:32:38.554Z,96.87
2017-12-20T13:34:05.859Z,96.91
2017-12-20T13:35:33.275Z,96.92
2017-12-20T13:37:00.815Z,96.93
2017-12-20T13:38:28.023Z,96.88
2017-12-20T13:39:55.239Z,96.84
2017-12-20T13:41:22.370Z,96.84
2017-12-20T13:42:49.610Z,96.86
2017-12-20T13:44:16.703Z,96.86
2017-12-20T13:45:44.029Z,96.83
2017-12-20T13:47:15.245Z,96.88
2017-12-20T13:48:42.368Z,97.03
2017-12-20T13:50:05.570Z,97.07
2017-12-20T13:51:32.835Z,97.15
2017-12-20T13:53:00.152Z,97.19
2017-12-20T13:54:31.623Z,97.20
2017-12-20T13:55:55.090Z,97.16
2017-12-20T13:57:22.443Z,97.31
2017-12-20T13:58:53.573Z,97.43
2017-12-20T14:00:16.859Z,97.50
2017-12-20T14:01:44.179Z,97.58
2017-12-20T14:03:11.317Z,97.64
2017-12-20T14:04:38.555Z,97.72
2017-12-20T14:06:09.961Z,97.79
2017-12-20T14:07:33.171Z,97.87
2017-12-20T14:09:00.543Z,98.00
2017-12-20T14:10:31.880Z,97.98
2017-12-20T14:11:55.366Z,98.02
2017-12-20T14:13:22.432Z,98.07
2017-12-20T14:14:53.772Z,98.10
2017-12-20T14:16:21.148Z,98.15
2017-12-20T14:17:48.275Z,98.21
2017-12-20T14:19:11.585Z,98.25
2017-12-20T14:20:42.837Z,98.33
2017-12-20T14:22:09.871Z,98.39
2017-12-20T14:23:33.150Z,98.52
2017-12-20T14:25:00.542Z,98.60
2017-12-20T14:26:31.791Z,98.61
2017-12-20T14:27:55.078Z,98.61
2017-12-20T14:29:22.421Z,98.59
2017-12-20T14:30:53.584Z,98.66
2017-12-20T14:32:20.831Z,98.75
2017-12-20T14:33:44.154Z,98.76
2017-12-20T14:35:15.456Z,98.82
2017-12-20T14:36:38.690Z,98.84
2017-12-20T14:38:09.782Z,98.79
2017-12-20T14:39:32.814Z,98.84
2017-12-20T14:41:00.247Z,98.92
2017-12-20T14:42:31.401Z,99.03
2017-12-20T14:43:54.534Z,99.03
2017-12-20T14:45:21.682Z,99.07
2017-12-20T14:46:48.784Z,99.08
2017-12-20T14:48:20.103Z,99.07
2017-12-20T14:49:43.060Z,99.09
2017-12-20T14:51:10.423Z,99.11
2017-12-20T14:52:37.649Z,99.08
2017-12-20T14:54:04.820Z,99.15
2017-12-20T14:55:32.227Z,99.14
2017-12-20T14:56:59.317Z,99.34
2017-12-20T14:58:26.735Z,99.34
2017-12-20T14:59:54.082Z,99.38
2017-12-20T15:01:21.495Z,99.39
2017-12-20T15:02:48.697Z,99.34
2017-12-20T15:04:16.018Z,99.35
2017-12-20T15:05:47.268Z,99.33
2017-12-20T15:07:10.514Z,99.34
2017-12-20T15:08:41.909Z,99.39
2017-12-20T15:10:05.044Z,99.41
2017-12-20T15:11:36.260Z,99.38
2017-12-20T15:12:59.731Z,99.37
2017-12-20T15:14:31.111Z,99.39
2017-12-20T15:15:54.323Z,99.51
2017-12-20T15:17:21.696Z,99.59
2017-12-20T15:18:48.872Z,99.61
2017-12-20T15:20:15.844Z,99.60
2017-12-20T15:21:43.154Z,99.61
2017-12-20T15:23:14.391Z,99.58
2017-12-20T15:24:37.697Z,99.58
2017-12-20T15:26:08.952Z,99.66
2017-12-20T15:27:32.288Z,99.69
2017-12-20T15:28:59.570Z,99.69
2017-12-20T15:30:26.822Z,99.68
2017-12-20T15:31:54.007Z,99.67
2017-12-20T15:33:21.234Z,99.65
2017-12-20T15:34:52.687Z,99.62
2017-12-20T15:36:15.841Z,99.66
2017-12-20T15:37:42.916Z,99.72
2017-12-20T15:39:10.050Z,99.69
2017-12-20T15:40:37.270Z,99.73
2017-12-20T15:42:04.654Z,99.84
2017-12-20T15:43:31.831Z,99.93
2017-12-20T15:45:03.255Z,99.92
2017-12-20T15:46:26.757Z,99.95
2017-12-20T15:47:53.995Z,100.00
2017-12-20T15:49:21.162Z,99.96
2017-12-20T15:50:48.613Z,100.00
2017-12-20T15:52:15.950Z,100.00
2017-12-20T15:53:47.026Z,100.00
2017-12-20T15:55:14.194Z,99.96
2017-12-20T15:56:37.432Z,99.84
2017-12-20T15:58:04.445Z,99.78
2017-12-20T15:59:35.681Z,99.73
2017-12-20T16:00:59.000Z,99.71
2017-12-20T16:02:26.205Z,99.75
2017-12-20T16:03:57.316Z,99.76
2017-12-20T16:05:20.644Z,99.75
2017-12-20T16:06:47.808Z,99.71
2017-12-20T16:08:15.102Z,99.67
2017-12-20T16:09:42.396Z,99.67
2017-12-20T16:11:09.512Z,99.67
2017-12-20T16:12:36.836Z,99.61
2017-12-20T16:14:04.048Z,99.62
2017-12-20T16:15:35.066Z,99.66
2017-12-20T16:16:58.434Z,99.67
2017-12-20T16:18:29.498Z,99.68
2017-12-20T16:19:56.634Z,99.69
2017-12-20T16:21:19.915Z,99.64
2017-12-20T16:22:47.334Z,99.70
2017-12-20T16:24:18.608Z,99.71
2017-12-20T16:25:45.838Z,99.72
2017-12-20T16:27:09.264Z,99.72
2017-12-20T16:28:36.613Z,99.77
2017-12-20T16:30:07.928Z,99.78
2017-12-20T16:31:31.149Z,99.80
2017-12-20T16:32:58.521Z,99.84
2017-12-20T16:34:25.772Z,99.89
2017-12-20T16:35:53.133Z,99.93
2017-12-20T16:37:20.518Z,99.90
2017-12-20T16:38:51.908Z,99.88
2017-12-20T16:40:15.154Z,99.90
2017-12-20T16:41:46.298Z,99.86
2017-12-20T16:43:13.709Z,99.81
2017-12-20T16:44:36.974Z,99.89
2017-12-20T16:46:08.302Z,99.89
2017-12-20T16:47:35.459Z,99.94
2017-12-20T16:49:02.872Z,99.97
2017-12-20T16:50:26.308Z,100.00
2017-12-20T16:51:57.463Z,100.00
2017-12-20T16:53:24.620Z,100.00
2017-12-20T16:54:51.925Z,100.00
2017-12-20T16:56:19.132Z,99.99
2017-12-20T16:57:42.324Z,100.00
2017-12-20T16:59:13.307Z,100.00
2017-12-20T17:00:36.644Z,100.00
2017-12-20T17:02:08.041Z,100.00
2017-12-20T17:03:30.970Z,100.00
2017-12-20T17:05:02.249Z,100.00
2017-12-20T17:06:25.648Z,100.00
2017-12-20T17:07:56.742Z,100.00
2017-12-20T17:09:24.001Z,100.00
2017-12-20T17:10:47.202Z,100.00
2017-12-20T17:12:14.500Z,100.00
2017-12-20T17:13:45.425Z,100.00
2017-12-20T17:15:12.909Z,100.00
2017-12-20T17:16:39.890Z,100.00
2017-12-20T17:18:07.210Z,100.00
2017-12-20T17:19:30.533Z,100.00
2017-12-20T17:21:01.569Z,100.00
2017-12-20T17:22:24.781Z,100.00
2017-12-20T17:23:51.950Z,100.00
2017-12-20T17:25:19.218Z,100.00
2017-12-20T17:26:46.459Z,100.00
2017-12-20T17:28:13.622Z,100.00
2017-12-20T17:29:44.947Z,100.00
2017-12-20T17:31:08.326Z,100.00
2017-12-20T17:32:35.296Z,100.00
2017-12-20T17:34:02.578Z,100.00
2017-12-20T17:35:33.645Z,100.00
2017-12-20T17:37:00.744Z,100.00
2017-12-20T17:38:24.065Z,100.00
2017-12-20T17:39:50.998Z,100.00
2017-12-20T17:41:22.094Z,100.00
2017-12-20T17:42:45.480Z,100.00
2017-12-20T17:44:12.550Z,100.00
2017-12-20T17:45:39.904Z,100.00
2017-12-20T17:47:07.154Z,100.00
2017-12-20T17:48:38.109Z,100.00
2017-12-20T17:50:05.439Z,100.00
2017-12-20T17:51:32.786Z,100.00
2017-12-20T17:52:56.333Z,100.00
2017-12-20T17:54:23.456Z,100.00
2017-12-20T17:55:50.850Z,100.00
2017-12-20T17:57:18.147Z,100.00
2017-12-20T17:58:49.392Z,100.00
2017-12-20T18:00:16.655Z,100.00
2017-12-20T18:01:39.988Z,100.00
2017-12-20T18:03:07.228Z,100.00
2017-12-20T18:04:34.323Z,100.00
2017-12-20T18:06:01.542Z,100.00
2017-12-20T18:07:32.617Z,100.00
2017-12-20T18:08:56.075Z,100.00
2017-12-20T18:10:27.423Z,100.00
2017-12-20T18:11:50.709Z,100.00
2017-12-20T18:13:18.033Z,100.00
2017-12-20T18:14:45.204Z,100.00
2017-12-20T18:16:12.351Z,100.00
2017-12-20T18:17:39.753Z,100.00
2017-12-20T18:19:11.041Z,100.00
2017-12-20T18:20:34.336Z,100.00
2017-12-20T18:22:01.569Z,100.00
2017-12-20T18:23:28.698Z,100.00
2017-12-20T18:24:59.522Z,100.00
2017-12-20T18:26:23.060Z,100.00
2017-12-20T18:27:54.199Z,100.00
2017-12-20T18:29:17.463Z,100.00
2017-12-20T18:30:44.709Z,100.00
2017-12-20T18:32:11.837Z,100.00
2017-12-20T18:33:39.240Z,100.00
2017-12-20T18:35:10.372Z,100.00
2017-12-20T18:36:33.618Z,100.00
2017-12-20T18:38:00.780Z,100.00
2017-12-20T18:39:28.163Z,100.00
2017-12-20T18:40:55.385Z,100.00
2017-12-20T18:42:26.530Z,100.00